Time;durP1;ratioP1;P1;durP2;ratioP2;P2;SDS_P1;SDS_P2;PMS_P1;PMS_P2;Temp;Humidity;BMP_temperature;BMP_pressure;BME280_temperature;BME280_humidity;BME280_pressure;Samples;Min_cycle;Max_cycle;Signal;HPM_P1;HPM_P2
2021/12/23 00:01:33;;;;;;;39.97;23.98;;;4.10;99.90;;;;;;5050014;28;20384;-74
2021/12/23 00:04:37;;;;;;;39.30;25.23;;;4.00;99.90;;;;;;5049006;28;20491;-74
2021/12/23 00:07:41;;;;;;;44.95;24.65;;;4.00;99.90;;;;;;5049175;28;20059;-74
2021/12/23 00:10:45;;;;;;;44.38;26.05;;;4.00;99.90;;;;;;5049866;28;20056;-73
2021/12/23 00:14:00;;;;;;;52.90;30.35;;;4.00;99.90;;;;;;5046863;28;20052;-74
2021/12/23 00:17:26;;;;;;;48.95;27.52;;;3.90;99.90;;;;;;5047774;28;20498;-74
2021/12/23 00:23:43;;;;;;;91.47;49.13;;;3.80;99.90;;;;;;5029234;28;20040;-74
2021/12/23 00:26:48;;;;;;;43.38;24.73;;;3.70;99.90;;;;;;5045862;28;20048;-74
2021/12/23 00:29:52;;;;;;;43.13;25.30;;;3.60;99.90;;;;;;5048378;28;20052;-74
2021/12/23 00:32:57;;;;;;;46.95;26.02;;;3.60;99.90;;;;;;5049586;28;20048;-74
2021/12/23 00:36:03;;;;;;;44.83;25.92;;;3.60;99.90;;;;;;5048730;28;20056;-74
2021/12/23 00:39:09;;;;;;;45.47;25.73;;;3.60;99.90;;;;;;5050872;28;20044;-74
2021/12/23 00:42:13;;;;;;;48.78;26.70;;;3.60;99.90;;;;;;5053318;28;20047;-73
2021/12/23 00:45:17;;;;;;;46.95;27.80;;;3.50;99.90;;;;;;5052940;28;20083;-73
2021/12/23 00:48:21;;;;;;;49.00;26.58;;;3.50;99.90;;;;;;5051715;28;20153;-74
2021/12/23 00:51:25;;;;;;;46.20;24.98;;;3.40;99.90;;;;;;5053174;28;20531;-74
2021/12/23 00:54:29;;;;;;;44.72;25.02;;;3.40;99.90;;;;;;5052726;28;20048;-74
2021/12/23 00:57:38;;;;;;;45.42;26.15;;;3.60;99.90;;;;;;5051925;28;20056;-73
2021/12/23 01:00:44;;;;;;;47.15;25.30;;;3.60;99.90;;;;;;5052481;28;20460;-73
2021/12/23 01:03:48;;;;;;;43.50;26.13;;;3.60;99.90;;;;;;5033237;28;20052;-73
2021/12/23 01:06:52;;;;;;;43.80;26.52;;;3.60;99.90;;;;;;5046959;28;20040;-73
2021/12/23 01:09:56;;;;;;;59.45;32.95;;;3.50;99.90;;;;;;5052212;28;20052;-74
2021/12/23 01:13:05;;;;;;;58.80;33.67;;;3.40;99.90;;;;;;5032930;28;20057;-73
2021/12/23 01:16:24;;;;;;;50.55;31.48;;;3.40;99.90;;;;;;5049268;28;20040;-74
2021/12/23 01:19:36;;;;;;;61.28;33.67;;;3.30;99.90;;;;;;5051009;28;20044;-74
2021/12/23 01:22:40;;;;;;;60.33;33.03;;;3.20;99.90;;;;;;5052615;28;20375;-74
2021/12/23 01:25:44;;;;;;;56.03;33.53;;;3.20;99.90;;;;;;5052154;28;20503;-73
2021/12/23 01:28:53;;;;;;;58.55;31.73;;;3.20;99.90;;;;;;5051396;28;20052;-73
2021/12/23 01:31:57;;;;;;;50.00;29.10;;;3.10;99.90;;;;;;5052282;28;20043;-73
2021/12/23 01:35:02;;;;;;;55.28;31.77;;;3.00;99.90;;;;;;5052191;28;20511;-74
2021/12/23 01:38:06;;;;;;;58.55;31.55;;;2.90;99.90;;;;;;5050994;28;20048;-74
2021/12/23 01:41:11;;;;;;;57.97;33.28;;;2.90;99.90;;;;;;5051895;28;20060;-73
2021/12/23 01:44:15;;;;;;;55.63;32.33;;;2.90;99.90;;;;;;5032316;28;20515;-74
2021/12/23 01:47:19;;;;;;;58.28;33.47;;;2.90;99.90;;;;;;5047263;28;20040;-74
2021/12/23 01:50:27;;;;;;;53.85;30.33;;;2.90;99.90;;;;;;5050631;28;20044;-74
2021/12/23 01:53:31;;;;;;;60.58;32.63;;;2.80;99.90;;;;;;5032596;28;20040;-74
2021/12/23 01:56:35;;;;;;;54.72;29.92;;;2.80;99.90;;;;;;5050070;28;20036;-74
2021/12/23 01:59:40;;;;;;;46.22;27.50;;;2.90;99.90;;;;;;5051311;28;20048;-74
2021/12/23 02:02:44;;;;;;;42.25;23.73;;;2.90;99.90;;;;;;5052355;28;20044;-73
2021/12/23 02:05:49;;;;;;;40.13;22.08;;;3.00;99.90;;;;;;5051683;28;20048;-74
2021/12/23 02:08:52;;;;;;;31.05;18.40;;;3.00;99.90;;;;;;5051146;28;20083;-74
2021/12/23 02:11:58;;;;;;;29.08;17.05;;;3.00;99.90;;;;;;5051987;28;20047;-73
2021/12/23 02:15:08;;;;;;;32.72;18.42;;;3.00;99.90;;;;;;5051147;28;20032;-73
2021/12/23 02:18:13;;;;;;;30.88;18.65;;;3.00;99.90;;;;;;5050291;28;20052;-74
2021/12/23 02:21:17;;;;;;;40.47;24.27;;;3.00;99.90;;;;;;5051369;28;20036;-74
2021/12/23 02:24:20;;;;;;;38.08;19.38;;;3.10;99.90;;;;;;5031749;28;20052;-74
2021/12/23 02:27:24;;;;;;;33.22;19.83;;;3.10;99.90;;;;;;5045087;28;20044;-74
2021/12/23 02:30:29;;;;;;;31.77;18.55;;;3.10;99.90;;;;;;5050724;28;20047;-74
2021/12/23 02:33:34;;;;;;;36.63;17.77;;;3.20;99.90;;;;;;5051614;28;20046;-74
2021/12/23 02:36:38;;;;;;;21.33;13.65;;;3.20;99.90;;;;;;5050628;28;20044;-74
2021/12/23 02:39:42;;;;;;;17.88;11.38;;;3.40;99.90;;;;;;5050247;28;20056;-74
2021/12/23 02:42:46;;;;;;;23.83;11.68;;;3.60;99.90;;;;;;5051384;28;20102;-73
2021/12/23 02:45:53;;;;;;;22.50;12.85;;;3.60;99.90;;;;;;5050713;28;20040;-74
2021/12/23 02:49:02;;;;;;;22.23;14.05;;;3.70;99.90;;;;;;5049586;28;20052;-74
2021/12/23 02:52:06;;;;;;;21.88;13.40;;;3.80;99.90;;;;;;5051292;28;20052;-74
2021/12/23 02:55:12;;;;;;;23.35;13.60;;;3.90;99.90;;;;;;5047658;28;20388;-74
2021/12/23 02:58:16;;;;;;;22.20;12.77;;;4.10;99.90;;;;;;5049849;28;20067;-74
2021/12/23 03:01:22;;;;;;;22.23;12.73;;;4.10;99.90;;;;;;5051069;28;20052;-74
2021/12/23 03:04:26;;;;;;;21.10;12.93;;;4.10;99.90;;;;;;5050679;28;20044;-74
2021/12/23 03:07:30;;;;;;;21.00;13.50;;;4.10;99.90;;;;;;5050072;28;20503;-74
2021/12/23 03:10:34;;;;;;;22.20;13.60;;;4.20;99.90;;;;;;5050782;28;20384;-74
2021/12/23 03:13:38;;;;;;;20.15;12.60;;;4.20;99.90;;;;;;5050689;28;20040;-73
2021/12/23 03:16:42;;;;;;;23.38;12.25;;;4.30;99.90;;;;;;5049932;28;20044;-74
2021/12/23 03:19:46;;;;;;;24.55;13.43;;;4.40;99.90;;;;;;5050117;28;20052;-73
2021/12/23 03:22:50;;;;;;;26.98;15.05;;;4.50;99.90;;;;;;5050920;28;20448;-73
2021/12/23 03:25:54;;;;;;;27.95;15.60;;;4.30;99.90;;;;;;5050165;28;20360;-74
2021/12/23 03:28:58;;;;;;;25.80;15.85;;;3.80;99.90;;;;;;5049606;28;20051;-74
2021/12/23 03:32:03;;;;;;;28.30;17.63;;;3.60;99.90;;;;;;5050755;28;20071;-73
2021/12/23 03:35:07;;;;;;;40.30;21.65;;;3.50;99.90;;;;;;5050033;28;20039;-73
2021/12/23 03:38:13;;;;;;;27.25;17.77;;;3.40;99.90;;;;;;5048986;28;20048;-73
2021/12/23 03:41:17;;;;;;;37.58;22.25;;;3.30;99.90;;;;;;5050221;28;20044;-74
2021/12/23 03:44:21;;;;;;;41.55;20.98;;;3.30;99.90;;;;;;5049940;28;20060;-74
2021/12/23 03:47:25;;;;;;;53.03;26.17;;;3.20;99.90;;;;;;5049282;28;20040;-73
2021/12/23 03:50:29;;;;;;;45.47;24.45;;;3.20;99.90;;;;;;5050114;28;20040;-73
2021/12/23 03:53:33;;;;;;;40.22;22.63;;;3.10;99.90;;;;;;5048002;28;20392;-74
2021/12/23 03:56:37;;;;;;;46.75;23.92;;;3.00;99.90;;;;;;5049371;28;20039;-74
2021/12/23 03:59:41;;;;;;;45.58;26.30;;;3.00;99.90;;;;;;5049449;28;20067;-73
2021/12/23 04:02:46;;;;;;;46.88;25.85;;;2.90;99.90;;;;;;5049993;28;20035;-73
2021/12/23 04:05:51;;;;;;;46.50;23.35;;;2.90;99.90;;;;;;5049115;28;20076;-73
2021/12/23 04:08:55;;;;;;;43.10;23.10;;;2.90;99.90;;;;;;5049201;28;20334;-74
2021/12/23 04:11:59;;;;;;;39.45;21.48;;;3.00;99.90;;;;;;5029779;28;20060;-73
2021/12/23 04:15:04;;;;;;;45.80;22.65;;;2.90;99.90;;;;;;5044141;28;20075;-74
2021/12/23 04:18:08;;;;;;;35.15;20.15;;;2.80;99.90;;;;;;5049366;28;20044;-74
2021/12/23 04:21:13;;;;;;;39.65;19.35;;;2.80;99.90;;;;;;5050098;28;20335;-74
2021/12/23 04:24:17;;;;;;;30.60;17.98;;;2.90;99.90;;;;;;5048712;28;20048;-73
2021/12/23 04:27:21;;;;;;;35.33;20.00;;;3.00;99.90;;;;;;5048781;28;20376;-73
2021/12/23 04:30:26;;;;;;;40.97;20.63;;;3.00;99.90;;;;;;5049322;28;20052;-73
2021/12/23 04:33:29;;;;;;;43.25;24.25;;;2.90;99.90;;;;;;5047583;28;20036;-74
2021/12/23 04:36:34;;;;;;;51.53;26.63;;;2.80;99.90;;;;;;5048774;28;20047;-73
2021/12/23 04:39:37;;;;;;;109.53;29.42;;;2.70;99.90;;;;;;5048852;28;20048;-73
2021/12/23 04:42:42;;;;;;;47.10;24.42;;;2.70;99.90;;;;;;5049110;28;20072;-74
2021/12/23 04:45:47;;;;;;;102.40;31.45;;;2.70;99.90;;;;;;5048532;28;20043;-74
2021/12/23 04:48:52;;;;;;;70.20;24.80;;;2.80;99.90;;;;;;5049125;28;20396;-74
2021/12/23 04:51:56;;;;;;;48.17;26.77;;;2.80;99.90;;;;;;5048896;28;20043;-74
2021/12/23 04:55:00;;;;;;;48.78;27.02;;;2.70;99.90;;;;;;5048569;28;20051;-74
2021/12/23 04:58:04;;;;;;;45.30;27.42;;;2.80;99.90;;;;;;5048862;28;20048;-73
2021/12/23 05:01:17;;;;;;;51.40;25.83;;;2.80;99.90;;;;;;5029591;28;20048;-73
2021/12/23 05:04:20;;;;;;;45.35;26.00;;;3.00;99.90;;;;;;5044289;28;20286;-74
2021/12/23 05:07:25;;;;;;;46.60;25.88;;;3.10;99.90;;;;;;5049278;28;20526;-73
2021/12/23 05:10:28;;;;;;;48.45;26.50;;;3.20;99.90;;;;;;5048623;28;20036;-73
2021/12/23 05:13:32;;;;;;;48.67;27.73;;;3.10;99.90;;;;;;5048223;28;20044;-73
2021/12/23 05:16:37;;;;;;;49.85;27.52;;;2.80;99.90;;;;;;5048654;28;20048;-74
2021/12/23 05:19:42;;;;;;;47.42;27.17;;;2.80;99.90;;;;;;5048593;28;20044;-73
2021/12/23 05:22:47;;;;;;;43.35;25.73;;;2.80;99.90;;;;;;5047515;28;20036;-73
2021/12/23 05:25:51;;;;;;;45.40;24.33;;;2.80;99.90;;;;;;5050382;28;20523;-74
2021/12/23 05:28:55;;;;;;;45.45;26.35;;;2.90;99.90;;;;;;5052608;28;20048;-73
2021/12/23 05:31:59;;;;;;;57.78;29.85;;;3.00;99.90;;;;;;5045746;28;20487;-72
2021/12/23 05:35:05;;;;;;;47.90;26.40;;;2.70;99.90;;;;;;5053099;28;20474;-73
2021/12/23 05:38:10;;;;;;;56.80;29.30;;;2.60;99.90;;;;;;5063026;28;20498;-74
2021/12/23 05:41:14;;;;;;;44.08;25.10;;;2.60;99.90;;;;;;5051775;28;20060;-73
2021/12/23 05:44:18;;;;;;;113.32;30.08;;;2.60;99.90;;;;;;5052136;28;20043;-74
2021/12/23 05:47:22;;;;;;;39.90;23.42;;;2.70;99.90;;;;;;5052550;28;20395;-73
2021/12/23 05:50:26;;;;;;;46.75;26.00;;;2.80;99.90;;;;;;5033781;28;20064;-73
2021/12/23 05:53:30;;;;;;;41.45;21.75;;;2.70;99.90;;;;;;5046047;28;20491;-73
2021/12/23 05:56:34;;;;;;;38.85;23.38;;;2.70;99.90;;;;;;5063625;28;20395;-73
2021/12/23 05:59:38;;;;;;;91.88;26.75;;;2.60;99.90;;;;;;5063124;28;20499;-74
2021/12/23 06:02:44;;;;;;;38.70;21.73;;;2.60;99.90;;;;;;5040795;28;20400;-73
2021/12/23 06:05:48;;;;;;;36.63;21.90;;;2.70;99.90;;;;;;5045163;28;20372;-73
2021/12/23 06:08:52;;;;;;;39.33;22.48;;;2.70;99.90;;;;;;5032484;28;20384;-73
2021/12/23 06:11:57;;;;;;;34.10;21.83;;;2.70;99.90;;;;;;5050431;28;20502;-74
2021/12/23 06:15:00;;;;;;;32.80;20.05;;;2.70;99.90;;;;;;5051951;28;20044;-73
2021/12/23 06:18:04;;;;;;;45.13;24.20;;;2.80;99.90;;;;;;5052396;28;20375;-73
2021/12/23 06:21:09;;;;;;;33.65;19.40;;;2.70;99.90;;;;;;5051654;28;20376;-74
2021/12/23 06:24:13;;;;;;;37.60;21.20;;;2.80;99.90;;;;;;5051591;28;20123;-73
2021/12/23 06:27:19;;;;;;;37.28;22.23;;;2.80;99.90;;;;;;5052088;28;20483;-73
2021/12/23 06:30:22;;;;;;;32.53;20.85;;;2.90;99.90;;;;;;5050021;28;20047;-73
2021/12/23 06:33:28;;;;;;;34.40;20.65;;;3.00;99.90;;;;;;5051580;28;20047;-73
2021/12/23 06:36:32;;;;;;;34.58;21.52;;;3.00;99.90;;;;;;5051797;28;20056;-73
2021/12/23 06:39:36;;;;;;;35.47;19.95;;;3.10;99.90;;;;;;5031262;28;20053;-73
2021/12/23 06:42:40;;;;;;;33.95;20.27;;;2.90;99.90;;;;;;5045043;28;20040;-73
2021/12/23 06:45:44;;;;;;;34.85;20.00;;;2.90;99.90;;;;;;5051623;28;20056;-74
2021/12/23 06:48:48;;;;;;;32.85;19.33;;;3.00;99.90;;;;;;5051663;28;20391;-73
2021/12/23 06:51:53;;;;;;;31.75;19.60;;;3.00;99.90;;;;;;5050907;28;20052;-73
2021/12/23 06:54:58;;;;;;;32.88;17.95;;;3.00;99.90;;;;;;5051638;28;20052;-74
2021/12/23 06:58:02;;;;;;;27.35;16.73;;;2.90;99.90;;;;;;5031313;28;20499;-74
2021/12/23 07:01:06;;;;;;;32.30;20.27;;;2.90;99.90;;;;;;5048122;28;20040;-73
2021/12/23 07:04:18;;;;;;;34.17;19.38;;;3.00;99.90;;;;;;5050933;28;20040;-73
2021/12/23 07:07:28;;;;;;;32.15;19.77;;;3.00;99.90;;;;;;5051328;28;20157;-73
2021/12/23 07:10:33;;;;;;;34.03;20.27;;;3.00;99.90;;;;;;5048001;28;20063;-73
2021/12/23 07:13:37;;;;;;;34.38;20.45;;;3.00;99.90;;;;;;5049424;28;20036;-73
2021/12/23 07:16:42;;;;;;;35.60;19.92;;;2.80;99.90;;;;;;5049945;28;20056;-73
2021/12/23 07:19:46;;;;;;;36.50;21.40;;;2.80;99.90;;;;;;5049230;28;20059;-73
2021/12/23 07:22:50;;;;;;;37.65;21.63;;;2.80;99.90;;;;;;5046025;28;20032;-73
2021/12/23 07:25:54;;;;;;;38.35;21.60;;;2.90;99.90;;;;;;5043209;28;20044;-73
2021/12/23 07:28:58;;;;;;;36.78;19.33;;;2.80;99.90;;;;;;5040917;28;20052;-73
2021/12/23 07:32:04;;;;;;;31.83;19.02;;;2.90;99.90;;;;;;5048279;28;20051;-73
2021/12/23 07:35:09;;;;;;;30.88;18.38;;;3.00;99.90;;;;;;5045910;28;20051;-73
2021/12/23 07:38:15;;;;;;;28.83;18.48;;;3.20;99.90;;;;;;5032203;28;20052;-73
2021/12/23 07:41:19;;;;;;;75.80;20.75;;;3.30;99.90;;;;;;5045802;28;20318;-73
2021/12/23 07:44:23;;;;;;;32.88;16.98;;;3.30;99.90;;;;;;5044419;28;20044;-73
2021/12/23 07:47:29;;;;;;;26.25;16.00;;;3.30;99.90;;;;;;5036068;28;20496;-73
2021/12/23 07:50:33;;;;;;;29.50;17.85;;;3.30;99.90;;;;;;5043934;28;20048;-73
2021/12/23 07:53:37;;;;;;;35.75;20.90;;;3.40;99.90;;;;;;5043704;28;20437;-73
2021/12/23 07:56:41;;;;;;;28.48;18.15;;;3.00;99.90;;;;;;5038471;28;20046;-73
2021/12/23 07:59:45;;;;;;;32.17;19.02;;;3.10;99.90;;;;;;5039000;28;20036;-74
2021/12/23 08:02:50;;;;;;;30.75;18.08;;;3.20;99.90;;;;;;5041050;28;20483;-74
2021/12/23 08:05:54;;;;;;;44.40;20.30;;;3.00;99.90;;;;;;5048725;28;20044;-73
2021/12/23 08:08:58;;;;;;;37.22;21.45;;;2.90;99.90;;;;;;5045186;28;20060;-73
2021/12/23 08:12:05;;;;;;;37.10;20.65;;;2.80;99.90;;;;;;5042467;28;20044;-73
2021/12/23 08:15:10;;;;;;;36.05;20.90;;;2.90;99.90;;;;;;5035937;28;20036;-74
2021/12/23 08:18:14;;;;;;;39.25;19.90;;;3.10;99.90;;;;;;5033805;28;20392;-74
2021/12/23 08:21:18;;;;;;;33.70;17.90;;;3.20;99.90;;;;;;5047879;28;20044;-74
2021/12/23 08:24:22;;;;;;;36.65;18.63;;;3.30;99.90;;;;;;5043699;28;20040;-74
2021/12/23 08:27:28;;;;;;;25.48;16.23;;;3.30;99.90;;;;;;5046144;28;20055;-73
2021/12/23 08:30:34;;;;;;;29.23;17.00;;;3.50;99.90;;;;;;5048437;28;20051;-73
2021/12/23 08:33:39;;;;;;;29.88;17.55;;;3.50;99.90;;;;;;5048306;28;20060;-74
2021/12/23 08:36:42;;;;;;;25.67;16.35;;;3.60;99.90;;;;;;5047507;28;20047;-74
2021/12/23 08:39:48;;;;;;;31.83;18.30;;;3.60;99.90;;;;;;5047664;28;20056;-73
2021/12/23 08:42:53;;;;;;;36.35;20.33;;;3.60;99.90;;;;;;5046941;28;20044;-73
2021/12/23 08:45:57;;;;;;;36.97;21.55;;;3.50;99.90;;;;;;5045421;28;20040;-73
2021/12/23 08:49:01;;;;;;;34.63;19.15;;;3.30;99.90;;;;;;5044773;28;20437;-73
2021/12/23 08:52:05;;;;;;;35.40;19.35;;;3.00;99.90;;;;;;5044349;28;20114;-74
2021/12/23 08:55:11;;;;;;;66.50;22.55;;;3.00;99.90;;;;;;5043825;28;20036;-74
2021/12/23 08:58:16;;;;;;;36.00;19.05;;;3.10;99.90;;;;;;5039801;28;20534;-74
2021/12/23 09:01:20;;;;;;;32.10;19.77;;;3.30;99.90;;;;;;5051961;28;20534;-74
2021/12/23 09:04:25;;;;;;;36.17;21.95;;;3.40;99.90;;;;;;5052669;28;20048;-73
2021/12/23 09:07:29;;;;;;;43.28;24.05;;;3.40;99.90;;;;;;5050927;28;20678;-74
2021/12/23 09:10:34;;;;;;;50.47;30.83;;;3.60;99.90;;;;;;5050761;28;20036;-74
2021/12/23 09:13:38;;;;;;;55.42;34.28;;;3.80;99.90;;;;;;5046199;28;20048;-74
2021/12/23 09:16:42;;;;;;;35.33;21.23;;;3.80;99.90;;;;;;5050395;28;20047;-73
2021/12/23 09:19:46;;;;;;;44.60;24.70;;;3.60;99.90;;;;;;5048988;28;20056;-73
2021/12/23 09:22:51;;;;;;;44.80;27.30;;;3.40;99.90;;;;;;5045681;28;20137;-74
2021/12/23 09:25:56;;;;;;;49.05;27.48;;;3.40;99.90;;;;;;5046082;28;20044;-74
2021/12/23 09:29:14;;;;;;;43.42;26.10;;;3.50;99.90;;;;;;5050781;28;20048;-74
2021/12/23 09:35:40;;;;;;;;;;;3.70;99.90;;;;;;5051564;28;20067;-74
2021/12/23 09:38:45;;;;;;;39.28;23.02;;;3.90;99.90;;;;;;5048475;28;20326;-74
2021/12/23 09:41:50;;;;;;;39.75;22.52;;;4.10;99.90;;;;;;5050053;28;20491;-74
2021/12/23 09:44:59;;;;;;;40.75;22.77;;;4.10;99.90;;;;;;5033791;28;20044;-74
2021/12/23 09:48:05;;;;;;;46.22;23.92;;;4.10;99.90;;;;;;5048231;28;20040;-74
2021/12/23 09:51:11;;;;;;;43.47;25.23;;;4.10;99.90;;;;;;5050003;28;20068;-74
2021/12/23 09:54:18;;;;;;;47.78;26.25;;;4.00;99.90;;;;;;5051057;28;20388;-74
2021/12/23 09:57:23;;;;;;;44.33;24.52;;;3.90;99.90;;;;;;5051971;28;20043;-74
2021/12/23 10:00:30;;;;;;;38.33;22.95;;;3.90;99.90;;;;;;5047455;28;20048;-74
2021/12/23 10:03:37;;;;;;;38.38;20.85;;;4.10;99.90;;;;;;5042641;28;20051;-74
2021/12/23 10:06:43;;;;;;;38.97;21.65;;;4.20;99.90;;;;;;5051548;28;20416;-74
2021/12/23 10:10:06;;;;;;;37.25;21.90;;;4.20;99.90;;;;;;5051421;28;20495;-74
2021/12/23 10:40:04;;;;;;;;;;;5.30;99.90;;;;;;5045788;28;20040;-74
2021/12/23 10:43:11;;;;;;;44.13;22.23;;;5.40;99.90;;;;;;5048136;28;19920;-74
2021/12/23 10:46:22;;;;;;;53.22;26.85;;;5.40;99.90;;;;;;5050557;28;20032;-74
2021/12/23 10:49:49;;;;;;;39.92;23.38;;;5.60;99.90;;;;;;5049361;28;20040;-74
2021/12/23 10:53:07;;;;;;;48.53;24.63;;;5.70;99.90;;;;;;5038303;28;20365;-74
2021/12/23 10:59:47;;;;;;;40.60;23.90;;;5.90;99.90;;;;;;5045838;28;20055;-74
2021/12/23 11:03:05;;;;;;;40.35;23.95;;;6.00;99.90;;;;;;5043038;28;20044;-74
2021/12/23 11:06:30;;;;;;;40.08;23.17;;;6.20;99.90;;;;;;5049628;28;20048;-74
2021/12/23 11:09:43;;;;;;;42.80;25.40;;;6.30;99.90;;;;;;5044654;28;20052;-74
2021/12/23 11:37:09;;;;;;;36.63;23.55;;;7.80;99.90;;;;;;5046336;28;20048;-74
2021/12/23 11:43:43;;;;;;;35.65;20.90;;;8.00;99.90;;;;;;5049577;28;20510;-74
2021/12/23 11:46:54;;;;;;;33.22;21.15;;;8.20;99.90;;;;;;5036357;28;20052;-74
2021/12/23 11:49:58;;;;;;;31.67;20.67;;;8.70;99.90;;;;;;5042473;28;20055;-74
2021/12/23 11:53:03;;;;;;;36.40;21.98;;;9.80;99.90;;;;;;5048825;28;20048;-74
2021/12/23 11:56:11;;;;;;;37.75;22.48;;;9.50;99.90;;;;;;5035294;28;20053;-74
2021/12/23 11:59:16;;;;;;;33.58;22.55;;;9.60;99.90;;;;;;5044878;28;20063;-74
2021/12/23 12:02:21;;;;;;;38.42;22.40;;;9.70;99.90;;;;;;5045356;28;20041;-74
2021/12/23 12:05:25;;;;;;;40.40;22.67;;;10.60;99.90;;;;;;5048352;28;20044;-74
2021/12/23 12:08:30;;;;;;;38.53;24.23;;;11.00;99.90;;;;;;5048389;28;20071;-74
2021/12/23 12:11:34;;;;;;;33.80;22.77;;;11.00;99.90;;;;;;5048392;28;20531;-74
2021/12/23 12:14:41;;;;;;;34.42;21.88;;;11.20;99.90;;;;;;5044857;28;20042;-74
2021/12/23 12:17:45;;;;;;;34.22;21.50;;;11.80;99.90;;;;;;5043426;28;20033;-74
2021/12/23 12:20:58;;;;;;;36.90;23.20;;;11.70;99.90;;;;;;5040945;28;20064;-75
2021/12/23 12:24:18;;;;;;;39.42;23.63;;;11.80;99.90;;;;;;5044116;28;20163;-74
2021/12/23 12:27:26;;;;;;;35.47;22.80;;;11.60;99.90;;;;;;5045399;28;20053;-75
2021/12/23 12:30:39;;;;;;;37.28;22.65;;;11.80;99.90;;;;;;5046588;28;20048;-74
2021/12/23 12:34:02;;;;;;;38.55;23.02;;;11.80;99.90;;;;;;5046968;28;20044;-74
2021/12/23 12:37:07;;;;;;;31.80;21.08;;;11.20;99.90;;;;;;5051763;28;20060;-75
2021/12/23 12:40:11;;;;;;;31.50;20.25;;;11.60;99.90;;;;;;5051550;28;20064;-74
2021/12/23 12:43:49;;;;;;;31.85;19.50;;;11.60;99.90;;;;;;5045427;28;20051;-74
2021/12/23 12:50:12;;;;;;;32.50;20.42;;;10.90;99.90;;;;;;5052036;28;20048;-74
2021/12/23 12:53:19;;;;;;;33.03;19.40;;;10.50;99.90;;;;;;5051631;28;20122;-74
2021/12/23 12:56:25;;;;;;;27.58;18.90;;;10.60;99.90;;;;;;5047002;28;20404;-74
2021/12/23 12:59:35;;;;;;;31.98;18.80;;;11.40;99.90;;;;;;5049243;28;20399;-74
2021/12/23 13:02:39;;;;;;;26.58;17.60;;;12.00;99.90;;;;;;5046426;28;20056;-74
2021/12/23 13:05:47;;;;;;;25.17;17.38;;;11.70;99.90;;;;;;5049241;28;20649;-74
2021/12/23 13:09:10;;;;;;;30.58;18.13;;;11.40;99.90;;;;;;5047367;28;20083;-75
2021/12/23 13:12:54;;;;;;;31.02;18.90;;;11.00;99.90;;;;;;5040641;28;20052;-75
2021/12/23 13:16:31;;;;;;;32.53;18.83;;;10.60;99.90;;;;;;5048812;28;20044;-75
2021/12/23 13:19:40;;;;;;;32.63;19.85;;;10.30;99.90;;;;;;5040908;28;20048;-75
2021/12/23 13:22:45;;;;;;;33.05;21.30;;;10.00;99.90;;;;;;5051461;28;20040;-74
2021/12/23 13:25:51;;;;;;;35.60;20.48;;;9.60;99.90;;;;;;5049926;28;20048;-75
2021/12/23 13:28:58;;;;;;;40.63;22.48;;;9.40;99.90;;;;;;5048560;28;20040;-75
2021/12/23 13:32:03;;;;;;;34.72;21.95;;;9.20;99.90;;;;;;5048380;28;20040;-75
2021/12/23 13:35:14;;;;;;;37.95;21.48;;;9.20;99.90;;;;;;5046928;28;20589;-76
2021/12/23 13:38:30;;;;;;;33.50;20.95;;;9.10;99.90;;;;;;5047380;28;20510;-75
2021/12/23 13:41:42;;;;;;;37.65;21.55;;;9.40;99.90;;;;;;5044677;28;20047;-76
2021/12/23 13:44:50;;;;;;;38.15;21.52;;;9.60;99.90;;;;;;5051322;28;20495;-76
2021/12/23 13:47:57;;;;;;;37.25;21.95;;;9.70;99.90;;;;;;5048294;28;20055;-76
2021/12/23 13:51:14;;;;;;;38.05;21.10;;;9.70;99.90;;;;;;5050274;28;20419;-73
2021/12/23 13:54:18;;;;;;;41.53;21.77;;;9.50;99.90;;;;;;5043391;28;20048;-75
2021/12/23 13:57:24;;;;;;;36.40;22.55;;;9.10;99.90;;;;;;5046072;28;20056;-76
2021/12/23 14:00:30;;;;;;;35.20;21.10;;;8.70;99.90;;;;;;5047344;28;20064;-76
2021/12/23 14:03:35;;;;;;;40.17;23.88;;;8.70;99.90;;;;;;5046451;28;20040;-75
2021/12/23 14:06:40;;;;;;;45.85;26.90;;;8.70;99.90;;;;;;5049119;28;20501;-73
2021/12/23 14:10:08;;;;;;;46.25;27.65;;;8.80;99.90;;;;;;5046023;28;20047;-75
2021/12/23 14:13:19;;;;;;;38.03;24.67;;;8.90;99.90;;;;;;5036395;28;20052;-76
2021/12/23 14:16:44;;;;;;;39.45;24.33;;;8.90;99.90;;;;;;5049009;28;20048;-76
2021/12/23 14:23:44;;;;;;;43.38;26.38;;;9.10;99.90;;;;;;5035409;28;20385;-75
2021/12/23 14:26:50;;;;;;;45.00;26.20;;;9.20;99.90;;;;;;5044587;28;20032;-75
2021/12/23 14:30:03;;;;;;;40.15;23.88;;;9.30;99.90;;;;;;5048505;28;20044;-75
2021/12/23 14:33:15;;;;;;;37.65;22.45;;;9.40;99.90;;;;;;5046569;28;20060;-76
2021/12/23 14:36:22;;;;;;;37.88;22.38;;;9.40;99.90;;;;;;5045189;28;20072;-75
2021/12/23 14:39:32;;;;;;;36.88;23.63;;;9.30;99.90;;;;;;5049406;28;20044;-75
2021/12/23 14:42:36;;;;;;;35.95;21.08;;;9.20;99.90;;;;;;5046751;28;20048;-75
2021/12/23 14:45:42;;;;;;;40.58;23.00;;;9.10;99.90;;;;;;5049520;28;20384;-75
2021/12/23 14:52:20;;;;;;;42.55;25.55;;;8.90;99.90;;;;;;5048433;28;20048;-75
2021/12/23 14:55:32;;;;;;;45.75;26.58;;;8.80;99.90;;;;;;5049036;28;20495;-75
2021/12/23 14:58:35;;;;;;;45.13;24.58;;;8.70;99.90;;;;;;5043109;28;20040;-75
2021/12/23 15:01:42;;;;;;;44.42;23.88;;;8.70;99.90;;;;;;5050192;28;20047;-75
2021/12/23 15:04:58;;;;;;;35.25;21.98;;;8.80;99.90;;;;;;5049521;28;20153;-75
2021/12/23 15:08:06;;;;;;;41.78;23.35;;;8.80;99.90;;;;;;5039721;28;20067;-75
2021/12/23 15:11:11;;;;;;;36.67;20.90;;;8.80;99.90;;;;;;5048106;28;20040;-75
2021/12/23 15:14:18;;;;;;;28.02;20.20;;;8.90;99.90;;;;;;5049777;28;20055;-75
2021/12/23 15:17:31;;;;;;;31.13;19.30;;;9.00;99.90;;;;;;5040840;28;20060;-75
2021/12/23 15:20:35;;;;;;;28.88;17.80;;;9.10;99.90;;;;;;5043740;28;20526;-75
2021/12/23 15:23:48;;;;;;;26.13;18.08;;;9.20;99.90;;;;;;5049696;28;20043;-75
2021/12/23 15:27:01;;;;;;;25.83;16.08;;;9.20;99.90;;;;;;5049681;28;20040;-75
2021/12/23 15:30:22;;;;;;;30.27;19.27;;;9.30;99.90;;;;;;5046267;28;20052;-76
2021/12/23 15:33:26;;;;;;;21.23;12.80;;;9.30;99.90;;;;;;5040100;28;20051;-75
2021/12/23 15:36:29;;;;;;;16.83;11.40;;;9.40;99.90;;;;;;5048193;28;20036;-75
2021/12/23 15:39:35;;;;;;;24.48;14.98;;;9.30;99.90;;;;;;5038065;28;20048;-75
2021/12/23 15:42:39;;;;;;;21.63;14.32;;;9.30;99.90;;;;;;5049810;28;20388;-75
2021/12/23 15:45:44;;;;;;;34.45;21.73;;;9.10;99.90;;;;;;5041519;28;20056;-75
2021/12/23 15:48:48;;;;;;;39.10;23.73;;;8.80;99.90;;;;;;5044026;28;20059;-75
2021/12/23 15:51:54;;;;;;;48.15;26.30;;;8.50;99.90;;;;;;5050010;28;20059;-75
2021/12/23 15:54:58;;;;;;;46.75;27.05;;;8.30;99.90;;;;;;5040785;28;20384;-75
2021/12/23 15:58:04;;;;;;;46.58;29.52;;;8.30;99.90;;;;;;5048384;28;20545;-75
2021/12/23 16:01:09;;;;;;;51.65;31.42;;;8.20;99.90;;;;;;5049834;28;20052;-75
2021/12/23 16:04:16;;;;;;;52.25;30.00;;;8.00;99.90;;;;;;5049408;28;20036;-75
2021/12/23 16:07:20;;;;;;;55.88;34.13;;;7.90;99.90;;;;;;5041209;28;20486;-75
2021/12/23 16:10:26;;;;;;;60.25;33.70;;;7.90;99.90;;;;;;5043028;28;20043;-75
2021/12/23 16:13:31;;;;;;;56.45;29.25;;;8.00;99.90;;;;;;5045569;28;20036;-75
2021/12/23 16:16:35;;;;;;;50.50;28.80;;;8.00;99.90;;;;;;5046282;28;20040;-75
2021/12/23 16:19:40;;;;;;;61.38;33.38;;;8.00;99.90;;;;;;5037636;28;20075;-75
2021/12/23 16:22:44;;;;;;;51.60;32.58;;;7.90;99.90;;;;;;5048375;28;20475;-75
2021/12/23 16:25:49;;;;;;;59.90;32.03;;;7.90;99.90;;;;;;5041924;28;20123;-75
2021/12/23 16:28:56;;;;;;;36.67;23.05;;;8.00;99.90;;;;;;5048164;28;20407;-75
2021/12/23 16:32:03;;;;;;;42.05;23.00;;;8.10;99.90;;;;;;5046627;28;20060;-75
2021/12/23 16:35:13;;;;;;;37.60;23.92;;;8.30;99.90;;;;;;5050000;28;20056;-75
2021/12/23 16:38:20;;;;;;;34.60;17.73;;;8.50;99.90;;;;;;5047868;28;20048;-75
2021/12/23 16:41:27;;;;;;;40.70;24.70;;;8.60;99.90;;;;;;5048688;28;20058;-75
2021/12/23 16:44:32;;;;;;;36.33;23.65;;;8.50;99.90;;;;;;5029386;28;20052;-75
2021/12/23 16:47:36;;;;;;;65.40;37.83;;;8.50;99.90;;;;;;5042569;28;20032;-75
2021/12/23 16:50:42;;;;;;;52.38;29.25;;;8.50;99.90;;;;;;5048720;28;20044;-75
2021/12/23 16:53:48;;;;;;;50.58;32.72;;;8.30;99.90;;;;;;5049066;28;20493;-75
2021/12/23 17:00:16;;;;;;;;;;;8.20;99.90;;;;;;5046958;28;20044;-75
2021/12/23 17:03:21;;;;;;;62.22;36.33;;;8.20;99.90;;;;;;5049125;28;20279;-75
2021/12/23 17:06:25;;;;;;;66.85;38.65;;;7.90;99.90;;;;;;5046196;28;20040;-76
2021/12/23 17:09:29;;;;;;;73.47;41.92;;;7.90;99.90;;;;;;5047642;28;20431;-75
2021/12/23 17:12:33;;;;;;;63.10;38.08;;;7.90;99.90;;;;;;5048969;28;20036;-75
2021/12/23 17:15:37;;;;;;;56.88;34.88;;;7.90;99.90;;;;;;5048345;28;20044;-75
2021/12/23 17:18:53;;;;;;;53.40;33.22;;;8.00;99.90;;;;;;5047776;28;20499;-76